Time;durP1;ratioP1;P1;durP2;ratioP2;P2;SDS_P1;SDS_P2;PMS_P1;PMS_P2;Temp;Humidity;BMP_temperature;BMP_pressure;BME280_temperature;BME280_humidity;BME280_pressure;Samples;Min_cycle;Max_cycle;Signal;HPM_P1;HPM_P2
2023/01/30 00:01:17;;;;;;;11.98;5.20;;;;;;;8.59;100.00;101837.38;5050048;28;20025;-71
2023/01/30 00:03:43;;;;;;;14.50;5.60;;;;;;;8.57;100.00;101841.75;5068291;28;20044;-65
2023/01/30 00:06:09;;;;;;;15.10;5.32;;;;;;;8.48;100.00;101841.81;5068037;28;20029;-69
2023/01/30 00:08:35;;;;;;;19.05;5.25;;;;;;;8.68;100.00;101835.53;5068169;28;20142;-70
2023/01/30 00:11:09;;;;;;;16.73;5.43;;;;;;;8.71;100.00;101832.88;5050453;28;20021;-69
2023/01/30 00:13:34;;;;;;;14.63;6.15;;;;;;;8.75;100.00;101826.69;5067683;28;20487;-72
2023/01/30 00:15:59;;;;;;;21.95;6.32;;;;;;;8.71;100.00;101825.00;5031544;28;20135;-71
2023/01/30 00:18:25;;;;;;;15.23;6.07;;;;;;;8.67;100.00;101808.38;5030555;28;20357;-68
2023/01/30 00:20:58;;;;;;;18.73;6.93;;;;;;;8.78;100.00;101812.66;5047434;28;20609;-66
2023/01/30 00:23:24;;;;;;;15.05;5.60;;;;;;;8.70;100.00;101825.91;5048537;28;20060;-71
2023/01/30 00:25:49;;;;;;;19.23;6.20;;;;;;;8.64;100.00;101810.19;5030083;28;20031;-69
2023/01/30 00:28:15;;;;;;;22.35;6.65;;;;;;;8.60;100.00;101809.34;5029439;28;20033;-71
2023/01/30 00:30:40;;;;;;;16.70;6.05;;;;;;;8.67;100.00;101794.38;5048239;28;20629;-71
2023/01/30 00:33:05;;;;;;;19.83;6.20;;;;;;;8.67;100.00;101789.13;5048397;28;20124;-69
2023/01/30 00:35:31;;;;;;;16.30;5.75;;;;;;;8.64;100.00;101805.78;5047050;28;20456;-71
2023/01/30 00:37:57;;;;;;;16.08;5.55;;;;;;;8.67;100.00;101789.13;5048099;28;20464;-70
2023/01/30 00:40:24;;;;;;;12.20;5.10;;;;;;;8.64;100.00;101781.28;5047302;28;20044;-70
2023/01/30 00:48:18;;;;;;;23.92;6.22;;;;;;;8.78;100.00;101782.00;5052885;28;20051;-72
2023/01/30 00:50:43;;;;;;;19.40;5.25;;;;;;;8.55;100.00;101777.00;5047199;28;20396;-71
2023/01/30 00:53:12;;;;;;;20.70;5.57;;;;;;;8.67;100.00;101778.63;5047526;28;20037;-71
2023/01/30 00:55:38;;;;;;;15.10;5.22;;;;;;;8.64;100.00;101761.13;5047987;28;20029;-68
2023/01/30 00:58:04;;;;;;;20.73;5.70;;;;;;;8.63;100.00;101769.00;5047248;28;20031;-71
2023/01/30 01:00:29;;;;;;;18.33;5.38;;;;;;;8.59;100.00;101778.69;5047554;28;20025;-72
2023/01/30 01:02:55;;;;;;;17.88;5.88;;;;;;;8.62;100.00;101769.91;5047019;28;20120;-67
2023/01/30 01:05:20;;;;;;;25.50;6.32;;;;;;;8.59;100.00;101749.81;5030160;28;20483;-71
2023/01/30 01:07:45;;;;;;;19.52;5.28;;;;;;;8.70;100.00;101715.53;5047504;28;20459;-71
2023/01/30 01:10:15;;;;;;;19.02;5.75;;;;;;;8.59;100.00;101713.03;5051825;28;20731;-71
2023/01/30 01:12:42;;;;;;;23.05;5.53;;;;;;;8.61;100.00;101721.75;5066103;28;20033;-71
2023/01/30 01:15:08;;;;;;;13.45;5.20;;;;;;;8.68;100.00;101697.16;5066935;28;20059;-71
2023/01/30 01:17:33;;;;;;;13.85;4.40;;;;;;;8.55;100.00;101699.03;5068006;28;20460;-71
2023/01/30 01:19:58;;;;;;;18.88;4.97;;;;;;;8.57;100.00;101696.41;5067512;28;20103;-64
2023/01/30 01:22:24;;;;;;;14.57;4.60;;;;;;;8.65;100.00;101696.31;5067737;28;20028;-70
2023/01/30 01:24:49;;;;;;;15.95;5.18;;;;;;;8.55;100.00;101701.66;5047727;28;20029;-69
2023/01/30 01:27:14;;;;;;;15.65;5.07;;;;;;;8.55;100.00;101706.06;5046900;28;20057;-69
2023/01/30 01:29:40;;;;;;;10.93;4.20;;;;;;;8.59;100.00;101731.41;5046668;28;20075;-70
2023/01/30 01:32:05;;;;;;;16.15;4.28;;;;;;;8.55;100.00;101737.59;5029726;28;20160;-71
2023/01/30 01:34:30;;;;;;;14.20;4.25;;;;;;;8.36;100.00;101713.25;5029285;28;20033;-71
2023/01/30 01:36:56;;;;;;;16.05;3.95;;;;;;;8.49;100.00;101713.97;5028938;28;20033;-70
2023/01/30 01:39:22;;;;;;;13.65;4.20;;;;;;;8.67;100.00;101705.06;5066923;28;20471;-67
2023/01/30 01:41:47;;;;;;;16.90;4.32;;;;;;;8.72;100.00;101708.47;5071011;28;20028;-68
2023/01/30 01:44:13;;;;;;;18.23;4.43;;;;;;;8.71;100.00;101725.16;5070344;28;20024;-70
2023/01/30 01:46:47;;;;;;;13.75;3.38;;;;;;;8.63;100.00;101729.59;5071212;28;20086;-69
2023/01/30 01:49:15;;;;;;;14.70;3.67;;;;;;;8.60;100.00;101727.88;5055405;28;20033;-69
2023/01/30 01:51:47;;;;;;;13.85;3.30;;;;;;;8.56;100.00;101713.94;5050798;28;20025;-71
2023/01/30 01:54:20;;;;;;;15.05;3.70;;;;;;;8.47;100.00;101708.75;5064539;28;20033;-71
2023/01/30 01:56:46;;;;;;;15.27;3.92;;;;;;;8.41;100.00;101709.69;5047683;28;20025;-71
2023/01/30 01:59:36;;;;;;;16.92;4.25;;;;;;;8.31;100.00;101711.53;5065810;28;20037;-70
2023/01/30 02:02:06;;;;;;;11.93;3.58;;;;;;;8.20;100.00;101710.78;5041728;28;20069;-71
2023/01/30 02:07:17;;;;;;;10.90;3.25;;;;;;;8.14;100.00;101710.81;5035388;28;20028;-67
2023/01/30 02:09:43;;;;;;;18.58;3.28;;;;;;;8.09;100.00;101706.50;5031731;28;20479;-72
2023/01/30 02:12:09;;;;;;;11.93;3.22;;;;;;;8.10;100.00;101704.75;5032602;28;20047;-65
2023/01/30 02:14:34;;;;;;;15.65;3.40;;;;;;;7.99;100.00;101710.09;5031661;28;20052;-72
2023/01/30 02:17:00;;;;;;;15.65;3.30;;;;;;;8.02;100.00;101696.94;5050978;28;20033;-71
2023/01/30 02:19:46;;;;;;;16.38;3.78;;;;;;;8.17;100.00;101700.31;5049654;28;20025;-68
2023/01/30 02:22:21;;;;;;;14.18;3.33;;;;;;;8.15;100.00;101702.06;5032788;28;20914;-70
2023/01/30 02:25:14;;;;;;;17.70;3.63;;;;;;;8.11;100.00;101701.22;5092257;23;20041;-62
2023/01/30 02:28:17;;;;;;;16.13;3.25;;;;;;;8.28;100.00;101702.81;5050220;28;20032;-63
2023/01/30 02:31:04;;;;;;;14.82;3.63;;;;;;;8.25;100.00;101711.56;4999896;28;20072;-62
2023/01/30 02:33:40;;;;;;;13.48;3.42;;;;;;;8.39;100.00;101698.31;5040311;28;20112;-62
2023/01/30 02:36:11;;;;;;;19.25;3.78;;;;;;;8.44;100.00;101695.66;5013636;28;20479;-64
2023/01/30 02:39:10;;;;;;;20.42;3.55;;;;;;;8.38;100.00;101699.22;5030390;28;20087;-64
2023/01/30 02:41:45;;;;;;;17.90;3.85;;;;;;;8.46;100.00;101693.88;5032632;28;22853;-64
2023/01/30 02:44:17;;;;;;;18.70;4.70;;;;;;;8.41;100.00;101699.19;5049789;28;20043;-65
2023/01/30 02:46:45;;;;;;;21.95;3.72;;;;;;;8.30;100.00;101678.28;5045417;28;20037;-64
2023/01/30 02:49:29;;;;;;;15.40;3.83;;;;;;;8.26;100.00;101687.09;5052144;28;20102;-62
2023/01/30 02:51:57;;;;;;;17.65;3.53;;;;;;;8.27;100.00;101704.56;5040050;28;20345;-62
2023/01/30 02:54:22;;;;;;;15.38;3.28;;;;;;;8.24;100.00;101678.34;5032538;28;20025;-60
2023/01/30 02:56:51;;;;;;;15.82;3.55;;;;;;;8.26;100.00;101663.44;5049865;28;20025;-63
2023/01/30 02:59:21;;;;;;;11.00;3.00;;;;;;;8.30;100.00;101674.78;5032192;28;20021;-64
2023/01/30 03:01:46;;;;;;;16.85;3.40;;;;;;;8.38;100.00;101693.06;5043866;28;20029;-64
2023/01/30 03:04:36;;;;;;;15.60;3.97;;;;;;;8.26;100.00;101675.69;5049915;28;20093;-63
2023/01/30 03:07:11;;;;;;;20.80;4.07;;;;;;;8.38;100.00;101677.31;5049910;28;20033;-63
2023/01/30 03:09:47;;;;;;;14.57;3.25;;;;;;;8.39;100.00;101694.81;5036519;28;20055;-63
2023/01/30 03:12:21;;;;;;;15.43;3.70;;;;;;;8.52;100.00;101685.06;5051581;28;20412;-63
2023/01/30 03:15:03;;;;;;;18.48;4.28;;;;;;;8.50;100.00;101681.56;5051229;28;20025;-63
2023/01/30 03:17:31;;;;;;;13.98;3.35;;;;;;;8.51;100.00;101671.03;5051830;28;20060;-64
2023/01/30 03:19:57;;;;;;;17.33;3.55;;;;;;;8.43;100.00;101689.50;5051029;28;20542;-64
2023/01/30 03:22:22;;;;;;;17.60;3.90;;;;;;;8.51;100.00;101694.69;5051309;28;20107;-60
2023/01/30 03:24:48;;;;;;;15.95;3.72;;;;;;;8.49;100.00;101683.31;5051384;28;20068;-62
2023/01/30 03:27:14;;;;;;;25.60;4.28;;;;;;;8.47;100.00;101677.22;5067699;28;20062;-63
2023/01/30 03:29:40;;;;;;;23.92;4.50;;;;;;;8.52;100.00;101671.91;5069220;28;20463;-64
2023/01/30 03:32:05;;;;;;;16.40;3.55;;;;;;;8.40;100.00;101680.81;5068805;28;20033;-63
2023/01/30 03:34:31;;;;;;;15.18;3.53;;;;;;;8.53;100.00;101671.03;5069056;28;20386;-62
2023/01/30 03:36:56;;;;;;;16.30;3.72;;;;;;;8.64;100.00;101668.31;5058591;28;20040;-63
2023/01/30 03:39:23;;;;;;;18.30;3.72;;;;;;;8.64;100.00;101677.03;5049534;28;20025;-63
2023/01/30 03:41:48;;;;;;;17.13;3.60;;;;;;;8.56;100.00;101682.41;5031084;28;20025;-63
2023/01/30 03:44:14;;;;;;;18.35;3.80;;;;;;;8.63;100.00;101666.53;5048485;28;20424;-63
2023/01/30 03:46:39;;;;;;;17.67;3.50;;;;;;;8.62;100.00;101659.56;5048654;28;20371;-63
2023/01/30 03:49:04;;;;;;;7.35;2.88;;;;;;;8.61;100.00;101657.84;5049384;28;20797;-61
2023/01/30 03:51:30;;;;;;;15.90;3.20;;;;;;;8.47;100.00;101675.47;5048099;28;20020;-63
2023/01/30 03:53:55;;;;;;;21.05;4.00;;;;;;;8.52;100.00;101669.28;5049302;28;20044;-64
2023/01/30 03:56:20;;;;;;;18.90;3.78;;;;;;;8.50;100.00;101671.06;5047193;28;20168;-64
2023/01/30 03:58:46;;;;;;;19.10;3.50;;;;;;;8.45;100.00;101658.84;5048010;28;20528;-63
2023/01/30 04:01:11;;;;;;;19.48;4.50;;;;;;;8.59;100.00;101669.25;5049417;28;20031;-61
2023/01/30 04:03:36;;;;;;;14.60;3.45;;;;;;;8.62;100.00;101649.94;5068271;28;20546;-62
2023/01/30 04:06:02;;;;;;;18.27;3.33;;;;;;;8.48;100.00;101657.94;5057952;28;20024;-63
2023/01/30 04:08:27;;;;;;;13.13;3.65;;;;;;;8.46;100.00;101665.00;5030710;28;20036;-61
2023/01/30 04:10:53;;;;;;;18.58;3.45;;;;;;;8.44;100.00;101711.41;5048651;28;20029;-65
2023/01/30 04:13:18;;;;;;;15.60;3.20;;;;;;;8.52;100.00;101648.28;5048881;28;20060;-62
2023/01/30 04:15:43;;;;;;;15.00;2.92;;;;;;;8.49;100.00;101651.78;5063439;28;20029;-64
2023/01/30 04:18:09;;;;;;;19.77;3.08;;;;;;;8.42;100.00;101658.88;5068905;28;20090;-63
2023/01/30 04:20:35;;;;;;;18.35;4.00;;;;;;;8.41;100.00;101662.41;5050040;28;20395;-63
2023/01/30 04:23:00;;;;;;;16.48;3.40;;;;;;;8.38;100.00;101669.44;5065734;28;20029;-64
2023/01/30 04:25:25;;;;;;;18.25;2.45;;;;;;;8.31;100.00;101671.28;5048857;28;20036;-63
2023/01/30 04:27:51;;;;;;;16.23;2.95;;;;;;;8.29;100.00;101686.16;5048107;28;20064;-65
2023/01/30 04:30:16;;;;;;;12.30;2.78;;;;;;;8.29;100.00;101663.41;5049067;28;20028;-64
2023/01/30 04:32:42;;;;;;;17.25;2.55;;;;;;;8.30;100.00;101666.91;5047767;28;20045;-60
2023/01/30 04:35:07;;;;;;;9.30;2.55;;;;;;;8.36;100.00;101687.00;5051983;28;20032;-63
2023/01/30 04:37:33;;;;;;;10.15;2.40;;;;;;;8.41;100.00;101703.56;5068195;28;20033;-63
2023/01/30 04:39:58;;;;;;;9.25;2.40;;;;;;;8.34;100.00;101692.25;5068932;28;20055;-64
2023/01/30 04:42:23;;;;;;;8.73;2.33;;;;;;;8.39;100.00;101705.31;5066757;28;20064;-60
2023/01/30 04:44:48;;;;;;;13.18;2.22;;;;;;;8.34;100.00;101703.63;5050670;28;20020;-64
2023/01/30 04:47:14;;;;;;;10.10;2.42;;;;;;;8.43;100.00;101691.28;5068104;28;20082;-64
2023/01/30 04:49:39;;;;;;;15.70;2.40;;;;;;;8.48;100.00;101715.72;5035910;28;20082;-64
2023/01/30 04:52:05;;;;;;;16.48;2.42;;;;;;;8.47;100.00;101732.38;5048282;28;20458;-63
2023/01/30 04:54:30;;;;;;;18.27;2.72;;;;;;;8.55;100.00;101727.94;5047481;28;20032;-63
2023/01/30 04:56:56;;;;;;;11.15;2.70;;;;;;;8.60;100.00;101714.75;5047871;28;20479;-65
2023/01/30 04:59:22;;;;;;;20.95;2.97;;;;;;;8.59;100.00;101707.78;5047614;28;20116;-63
2023/01/30 05:01:47;;;;;;;15.38;2.08;;;;;;;8.58;100.00;101693.75;5048317;28;20033;-65
2023/01/30 05:04:12;;;;;;;12.00;2.50;;;;;;;8.54;100.00;101743.72;5048028;28;20061;-67
2023/01/30 05:06:38;;;;;;;16.38;2.70;;;;;;;8.40;100.00;101717.59;5047773;28;20025;-62
2023/01/30 05:09:04;;;;;;;20.30;3.90;;;;;;;8.19;100.00;101724.78;5040168;28;20068;-66
2023/01/30 05:11:30;;;;;;;10.50;2.47;;;;;;;8.21;100.00;101708.13;5067825;28;20048;-65
2023/01/30 05:13:56;;;;;;;19.52;3.83;;;;;;;8.18;100.00;101687.16;5051786;28;20036;-63
2023/01/30 05:16:22;;;;;;;12.85;2.95;;;;;;;8.09;100.00;101719.63;5054442;28;20032;-63
2023/01/30 05:18:48;;;;;;;25.27;3.20;;;;;;;8.02;100.00;101704.81;5054632;28;20083;-65
2023/01/30 05:21:18;;;;;;;19.92;3.55;;;;;;;7.93;100.00;101718.91;5052380;28;20091;-65
2023/01/30 05:23:44;;;;;;;16.10;2.80;;;;;;;7.96;100.00;101725.88;5051414;28;20483;-64
2023/01/30 05:26:11;;;;;;;15.63;2.13;;;;;;;7.92;100.00;101700.53;5055247;28;20029;-63
2023/01/30 05:28:36;;;;;;;16.10;3.20;;;;;;;7.86;100.00;101711.09;5071121;28;20012;-62
2023/01/30 05:31:03;;;;;;;25.45;3.67;;;;;;;7.81;100.00;101724.25;5071087;28;20504;-64
2023/01/30 05:33:29;;;;;;;19.98;3.05;;;;;;;7.85;100.00;101704.97;5071912;28;20021;-64
2023/01/30 05:35:55;;;;;;;18.10;3.83;;;;;;;7.70;100.00;101717.31;5060442;28;20017;-62
2023/01/30 05:38:21;;;;;;;19.50;3.40;;;;;;;7.59;100.00;101714.78;5051571;28;20040;-64
2023/01/30 05:40:46;;;;;;;19.77;3.75;;;;;;;7.69;100.00;101744.44;5061925;28;20150;-63
2023/01/30 05:43:12;;;;;;;17.02;3.15;;;;;;;7.66;100.00;101733.97;5064584;28;20490;-62
2023/01/30 05:45:37;;;;;;;22.90;3.88;;;;;;;7.66;100.00;101728.72;5062180;28;20502;-64
2023/01/30 05:48:03;;;;;;;25.90;4.95;;;;;;;7.62;100.00;101747.13;5061273;28;20390;-62
2023/01/30 05:50:29;;;;;;;18.38;3.75;;;;;;;7.57;100.00;101727.03;5058429;28;20082;-63
2023/01/30 05:52:54;;;;;;;22.38;3.95;;;;;;;7.49;100.00;101725.34;5039125;28;20453;-65
2023/01/30 05:55:20;;;;;;;22.60;3.53;;;;;;;7.49;100.00;101718.34;5040931;28;20021;-63
2023/01/30 05:57:45;;;;;;;28.95;4.55;;;;;;;7.42;100.00;101733.25;5051795;28;20406;-65
2023/01/30 06:00:11;;;;;;;21.85;3.63;;;;;;;7.38;100.00;101731.53;5050526;28;20067;-65
2023/01/30 06:02:37;;;;;;;29.27;4.22;;;;;;;7.31;100.00;101738.56;5049307;28;20029;-64
2023/01/30 06:05:02;;;;;;;28.83;3.92;;;;;;;7.25;100.00;101730.72;5049832;28;20033;-61
2023/01/30 06:07:28;;;;;;;29.25;4.72;;;;;;;7.26;100.00;101723.75;5050584;28;20021;-64
2023/01/30 06:09:53;;;;;;;31.30;3.85;;;;;;;7.21;100.00;101710.66;5050296;28;20498;-64
2023/01/30 06:12:18;;;;;;;32.70;4.50;;;;;;;7.30;100.00;101726.34;5050576;28;20021;-64
2023/01/30 06:14:44;;;;;;;30.20;3.92;;;;;;;7.26;100.00;101753.47;5048692;28;20029;-65
2023/01/30 06:17:09;;;;;;;29.05;4.63;;;;;;;7.20;100.00;101753.50;5049471;28;20459;-64
2023/01/30 06:19:34;;;;;;;31.13;4.38;;;;;;;7.23;100.00;101722.00;5049405;28;20105;-64
2023/01/30 06:22:01;;;;;;;34.83;4.22;;;;;;;7.18;100.00;101734.25;5049004;28;20052;-63
2023/01/30 06:24:27;;;;;;;26.40;3.60;;;;;;;7.12;100.00;101734.28;5051123;28;20052;-62
2023/01/30 06:26:52;;;;;;;22.20;3.13;;;;;;;7.05;100.00;101731.69;5049932;28;20028;-64
2023/01/30 06:29:17;;;;;;;33.55;4.35;;;;;;;7.11;100.00;101751.78;5050531;28;20483;-63
2023/01/30 06:31:43;;;;;;;22.35;4.15;;;;;;;7.11;100.00;101735.19;5057274;28;20020;-64
2023/01/30 06:34:09;;;;;;;29.88;3.47;;;;;;;7.03;100.00;101741.31;5050402;28;20029;-62
2023/01/30 06:36:35;;;;;;;25.50;3.63;;;;;;;7.08;100.00;101741.31;5049860;28;20124;-63
2023/01/30 06:39:00;;;;;;;19.80;3.53;;;;;;;7.09;100.00;101729.94;5049995;28;20104;-61
2023/01/30 06:41:25;;;;;;;26.25;4.18;;;;;;;7.04;100.00;101723.84;5049587;28;20057;-63
2023/01/30 06:43:51;;;;;;;25.88;4.05;;;;;;;6.86;100.00;101712.56;5050475;28;20064;-65
2023/01/30 06:46:16;;;;;;;20.77;3.45;;;;;;;6.88;100.00;101750.13;5049687;28;20016;-64
2023/01/30 06:48:41;;;;;;;27.77;4.85;;;;;;;6.93;100.00;101723.91;5052675;28;20079;-62
2023/01/30 06:51:07;;;;;;;20.27;4.00;;;;;;;6.93;100.00;101763.22;5051661;28;20158;-64
2023/01/30 06:53:32;;;;;;;23.73;4.45;;;;;;;6.97;100.00;101748.34;5069753;28;20039;-64
2023/01/30 06:55:58;;;;;;;23.38;3.60;;;;;;;6.91;100.00;101757.09;5069085;28;20352;-64
2023/01/30 06:58:24;;;;;;;22.30;3.55;;;;;;;6.86;100.00;101779.84;5050593;28;20039;-64
2023/01/30 07:00:50;;;;;;;27.75;3.95;;;;;;;6.97;100.00;101764.06;5069431;28;20028;-62
2023/01/30 07:03:16;;;;;;;27.77;4.03;;;;;;;6.99;100.00;101764.94;5069219;28;20097;-61
2023/01/30 07:05:43;;;;;;;25.95;3.78;;;;;;;6.92;100.00;101770.19;5069322;28;20020;-66
2023/01/30 07:08:09;;;;;;;18.45;3.58;;;;;;;6.99;100.00;101773.66;5065753;28;20501;-63
2023/01/30 07:10:34;;;;;;;20.73;3.10;;;;;;;6.92;100.00;101778.06;5031882;28;20017;-65
2023/01/30 07:13:01;;;;;;;23.05;4.80;;;;;;;6.90;100.00;101776.31;5049199;28;20021;-63
2023/01/30 07:15:26;;;;;;;20.55;2.95;;;;;;;6.94;100.00;101791.16;5050027;28;20028;-67
2023/01/30 07:17:52;;;;;;;24.83;3.85;;;;;;;6.99;100.00;101788.50;5054964;28;20083;-59
2023/01/30 07:20:18;;;;;;;26.35;3.22;;;;;;;6.93;100.00;101800.75;5052290;28;20045;-63
2023/01/30 07:22:51;;;;;;;22.83;4.50;;;;;;;6.99;100.00;101799.88;5048091;28;20021;-62
2023/01/30 07:25:16;;;;;;;18.15;3.28;;;;;;;6.94;100.00;101794.66;5048618;28;20061;-63
2023/01/30 07:27:42;;;;;;;26.33;4.15;;;;;;;7.01;100.00;101808.59;5056014;28;20044;-63
2023/01/30 07:30:08;;;;;;;34.22;4.40;;;;;;;6.97;100.00;101803.34;5053716;28;20033;-60
2023/01/30 07:32:33;;;;;;;28.27;3.58;;;;;;;6.99;100.00;101801.63;5048121;28;20131;-65
2023/01/30 07:34:59;;;;;;;22.77;2.80;;;;;;;6.92;100.00;101796.38;5049336;28;20103;-64
2023/01/30 07:37:24;;;;;;;18.70;3.50;;;;;;;6.98;100.00;101798.13;5029667;28;20474;-64
2023/01/30 07:39:49;;;;;;;26.75;3.10;;;;;;;7.00;100.00;101793.75;5048254;28;20025;-65
2023/01/30 07:42:14;;;;;;;26.50;4.60;;;;;;;6.97;100.00;101804.25;5048658;28;20035;-66
2023/01/30 07:44:40;;;;;;;29.10;3.75;;;;;;;6.99;100.00;101802.50;5029789;28;20064;-62
2023/01/30 07:47:05;;;;;;;22.05;3.38;;;;;;;7.05;100.00;101802.44;5049269;28;20025;-60
2023/01/30 07:49:31;;;;;;;19.25;3.55;;;;;;;7.08;100.00;101801.59;5047779;28;20036;-65
2023/01/30 07:51:56;;;;;;;21.80;3.08;;;;;;;7.05;100.00;101806.84;5056134;28;20027;-63
2023/01/30 07:54:22;;;;;;;17.08;3.03;;;;;;;7.01;100.00;101794.63;5037553;28;20017;-64
2023/01/30 07:56:47;;;;;;;22.73;3.83;;;;;;;7.05;100.00;101781.47;5041165;28;20036;-62
2023/01/30 07:59:19;;;;;;;18.63;3.53;;;;;;;7.14;100.00;101791.09;5116297;27;20400;-65
2023/01/30 08:01:45;;;;;;;25.20;3.17;;;;;;;7.14;100.00;101813.78;5103881;28;20532;-64
2023/01/30 08:04:10;;;;;;;25.00;3.80;;;;;;;7.19;100.00;101828.63;5105201;28;20114;-64
2023/01/30 08:06:37;;;;;;;21.80;3.25;;;;;;;7.22;100.00;101822.50;5104177;28;20031;-62
2023/01/30 08:09:03;;;;;;;32.78;4.78;;;;;;;7.15;100.00;101826.00;5104503;28;20186;-63
2023/01/30 08:11:28;;;;;;;25.33;3.17;;;;;;;7.12;100.00;101836.50;5104943;28;20142;-64
2023/01/30 08:13:54;;;;;;;18.80;3.63;;;;;;;7.13;100.00;101825.16;5104482;28;20107;-64
2023/01/30 08:16:19;;;;;;;20.77;3.55;;;;;;;7.31;100.00;101830.31;5106502;28;20020;-64
2023/01/30 08:18:44;;;;;;;19.58;3.20;;;;;;;7.30;100.00;101841.69;5096784;28;20111;-64
2023/01/30 08:21:10;;;;;;;17.58;2.80;;;;;;;7.32;100.00;101833.84;5084389;28;20032;-63
2023/01/30 08:23:36;;;;;;;30.00;3.20;;;;;;;7.25;100.00;101834.75;5100648;28;20022;-65
2023/01/30 08:26:02;;;;;;;29.25;5.82;;;;;;;7.38;100.00;101835.53;5104251;28;20031;-65
2023/01/30 08:28:28;;;;;;;23.40;3.08;;;;;;;7.28;100.00;101834.69;5097692;28;20539;-63
2023/01/30 08:30:54;;;;;;;20.88;3.80;;;;;;;7.38;100.00;101851.28;5085690;28;20119;-65
2023/01/30 08:33:20;;;;;;;29.33;3.75;;;;;;;7.35;100.00;101853.91;5084140;28;20025;-62
2023/01/30 08:35:45;;;;;;;20.65;3.92;;;;;;;7.35;100.00;101830.31;5084204;28;20027;-64
2023/01/30 08:38:11;;;;;;;21.98;3.15;;;;;;;7.40;100.00;101850.38;5085126;28;20037;-64
2023/01/30 08:40:36;;;;;;;24.48;3.78;;;;;;;7.44;100.00;101877.47;5088055;28;20024;-64
2023/01/30 08:43:02;;;;;;;19.10;3.53;;;;;;;7.44;100.00;101861.75;5083160;28;20753;-65
2023/01/30 08:45:28;;;;;;;25.60;5.05;;;;;;;7.54;100.00;101862.56;5081980;28;20417;-63
2023/01/30 08:48:00;;;;;;;21.77;3.20;;;;;;;7.59;100.00;101866.91;5084248;28;20059;-64
2023/01/30 08:50:25;;;;;;;21.48;3.13;;;;;;;7.50;100.00;101861.72;5099363;28;20453;-65
2023/01/30 08:52:50;;;;;;;23.20;3.22;;;;;;;7.64;100.00;101881.75;5104436;28;20294;-63
2023/01/30 08:55:17;;;;;;;27.85;3.42;;;;;;;7.69;100.00;101874.75;5104098;28;20035;-64
2023/01/30 08:57:42;;;;;;;22.13;3.83;;;;;;;7.83;100.00;101879.91;5103652;28;20063;-65
2023/01/30 09:00:08;;;;;;;23.00;3.42;;;;;;;7.84;100.00;101887.78;5092435;28;20458;-65
2023/01/30 09:02:34;;;;;;;22.50;3.05;;;;;;;7.87;100.00;101899.13;5086456;28;20090;-63
2023/01/30 09:04:59;;;;;;;18.40;3.22;;;;;;;7.86;100.00;101894.78;5084169;28;20054;-63
2023/01/30 09:07:27;;;;;;;28.65;3.33;;;;;;;7.95;100.00;101910.47;5083623;28;20020;-65
2023/01/30 09:09:53;;;;;;;23.08;2.97;;;;;;;7.92;100.00;101937.59;5080698;28;20054;-63
2023/01/30 09:12:18;;;;;;;28.52;3.35;;;;;;;7.92;100.00;101900.84;5087378;28;20114;-64
2023/01/30 09:14:44;;;;;;;21.00;3.78;;;;;;;8.01;100.00;101909.56;5091150;28;20077;-64
2023/01/30 09:17:09;;;;;;;23.05;3.58;;;;;;;8.00;100.00;101929.69;5089552;28;20039;-62
2023/01/30 09:19:36;;;;;;;20.40;3.00;;;;;;;7.99;100.00;101893.81;5091159;28;20024;-59
2023/01/30 09:22:01;;;;;;;23.33;4.05;;;;;;;7.83;100.00;101896.53;5079954;28;20086;-63
2023/01/30 09:24:27;;;;;;;26.05;4.10;;;;;;;8.00;100.00;101911.31;5083178;28;20113;-62
2023/01/30 09:26:57;;;;;;;19.77;2.90;;;;;;;8.08;100.00;101921.75;5100719;28;20024;-62
2023/01/30 09:29:24;;;;;;;20.30;2.90;;;;;;;8.15;100.00;101927.84;5090853;28;20111;-62
2023/01/30 09:31:49;;;;;;;16.63;2.92;;;;;;;8.12;100.00;101920.84;5083448;28;20016;-63
2023/01/30 09:34:15;;;;;;;21.77;3.38;;;;;;;8.21;100.00;101938.31;5069648;28;20029;-62
2023/01/30 09:36:40;;;;;;;23.17;3.45;;;;;;;8.25;100.00;101936.53;5069615;28;20115;-62
2023/01/30 09:39:06;;;;;;;19.38;3.67;;;;;;;8.18;100.00;101923.44;5072066;28;20115;-64
2023/01/30 09:41:45;;;;;;;27.30;3.42;;;;;;;8.26;100.00;101957.53;5069005;28;20033;-63
2023/01/30 09:44:29;;;;;;;26.77;3.45;;;;;;;8.32;100.00;101935.63;5071249;28;20032;-63
2023/01/30 09:47:12;;;;;;;24.48;3.55;;;;;;;8.26;100.00;101949.66;5076005;28;20432;-65
2023/01/30 09:49:58;;;;;;;23.80;3.00;;;;;;;8.20;100.00;101928.69;5088408;28;20150;-63
2023/01/30 09:52:39;;;;;;;18.80;2.55;;;;;;;8.19;100.00;101955.84;5088323;28;20126;-63
2023/01/30 09:55:15;;;;;;;23.88;3.35;;;;;;;8.26;100.00;101941.78;5087995;28;20590;-63
2023/01/30 09:57:40;;;;;;;23.13;2.83;;;;;;;8.44;100.00;101974.94;5088804;28;20040;-63
2023/01/30 10:00:41;;;;;;;18.52;3.40;;;;;;;8.28;100.00;101947.88;5089655;28;20073;-64
2023/01/30 10:03:27;;;;;;;22.95;2.90;;;;;;;8.29;100.00;101961.91;5084448;28;20128;-65
2023/01/30 10:06:05;;;;;;;31.13;3.85;;;;;;;8.31;100.00;102000.38;5082471;28;20580;-65
2023/01/30 10:08:45;;;;;;;23.10;4.03;;;;;;;8.44;100.00;102016.09;5088134;28;20024;-63
2023/01/30 10:11:19;;;;;;;23.08;3.47;;;;;;;8.55;100.00;101984.53;5087303;28;20386;-61
2023/01/30 10:14:03;;;;;;;24.08;3.75;;;;;;;8.71;100.00;101987.91;5072729;28;20332;-63
2023/01/30 10:16:52;;;;;;;20.85;3.08;;;;;;;8.78;100.00;101986.09;5070734;28;20031;-63
2023/01/30 10:19:42;;;;;;;21.75;3.15;;;;;;;8.66;100.00;101987.06;5068679;28;20111;-65
2023/01/30 10:22:15;;;;;;;24.55;3.97;;;;;;;8.66;100.00;101993.19;5100589;28;20067;-61
2023/01/30 10:24:46;;;;;;;19.75;4.32;;;;;;;8.35;100.00;101998.63;5072310;28;20056;-63
2023/01/30 10:27:15;;;;;;;27.30;4.05;;;;;;;8.55;100.00;102016.91;5085682;28;20115;-62
2023/01/30 10:29:45;;;;;;;26.70;3.58;;;;;;;8.67;100.00;102007.22;5088534;28;20044;-62
2023/01/30 10:32:20;;;;;;;28.25;4.00;;;;;;;8.64;99.98;102015.13;5087469;28;20154;-63
2023/01/30 10:34:48;;;;;;;19.85;3.28;;;;;;;8.61;100.00;102015.16;5088384;28;20016;-63
2023/01/30 10:37:46;;;;;;;22.17;3.67;;;;;;;8.78;100.00;101999.25;5073439;28;20058;-61
2023/01/30 10:40:17;;;;;;;25.70;4.32;;;;;;;8.58;100.00;102016.03;5081957;27;20550;-62
2023/01/30 10:42:54;;;;;;;29.73;3.20;;;;;;;8.71;100.00;101995.81;5085557;28;20024;-63
2023/01/30 10:45:22;;;;;;;26.33;3.78;;;;;;;8.76;100.00;102019.41;5086901;28;20039;-64
2023/01/30 10:48:11;;;;;;;25.42;4.07;;;;;;;8.64;100.00;102025.63;5086853;28;20059;-66
2023/01/30 10:50:48;;;;;;;24.35;3.95;;;;;;;8.70;100.00;102036.97;5088663;28;20427;-64
2023/01/30 10:53:34;;;;;;;25.98;3.33;;;;;;;8.84;100.00;102023.72;5086098;28;20495;-62
2023/01/30 10:56:17;;;;;;;26.73;3.30;;;;;;;8.71;100.00;102025.59;5083551;28;20023;-65
2023/01/30 10:59:08;;;;;;;19.98;4.85;;;;;;;8.66;100.00;102026.47;5069066;28;20498;-64
2023/01/30 11:01:44;;;;;;;24.20;3.80;;;;;;;8.55;100.00;102022.16;5040073;28;20643;-64
2023/01/30 11:04:40;;;;;;;30.77;5.75;;;;;;;8.59;100.00;102023.91;5110244;27;20017;-63
2023/01/30 11:07:05;;;;;;;35.83;4.53;;;;;;;8.60;100.00;102045.78;5110928;27;20035;-64
2023/01/30 11:09:41;;;;;;;26.40;3.47;;;;;;;8.65;100.00;102032.63;5117877;27;20020;-60
2023/01/30 11:12:06;;;;;;;35.47;4.43;;;;;;;8.78;100.00;102029.03;5083446;28;20024;-63
2023/01/30 11:14:55;;;;;;;48.58;4.80;;;;;;;8.54;100.00;102012.56;5083243;28;20529;-61
2023/01/30 11:17:28;;;;;;;22.20;4.55;;;;;;;8.76;100.00;102033.41;5073476;28;20059;-60
2023/01/30 11:20:00;;;;;;;25.63;4.25;;;;;;;8.60;100.00;102019.50;5076441;28;20020;-64
2023/01/30 11:22:26;;;;;;;27.20;4.00;;;;;;;8.70;100.00;102010.69;5106425;27;20060;-64
2023/01/30 11:25:08;;;;;;;41.35;4.88;;;;;;;8.73;100.00;102009.78;5083910;28;20436;-62
2023/01/30 11:27:34;;;;;;;31.20;4.47;;;;;;;8.62;100.00;102007.25;5112729;27;20049;-63
2023/01/30 11:30:15;;;;;;;29.08;4.78;;;;;;;8.66;100.00;102016.84;5084168;28;20032;-64
2023/01/30 11:32:42;;;;;;;26.25;4.55;;;;;;;8.78;100.00;102026.41;5083232;28;20098;-64